»·PEaware :: N6182G KMSO-KHLN

N6182G :: KMSO-KHLN

FLIGHT INFORMATION

Flight Status: Arrived
Operator: Privately registered:
United States
More flights under this callsign
Pilot: Paul A. (20189)
Aircraft: CESSNA 182 SKYLANE
(C182)
More flights by this aircraft type
Origin: KMSO Missoula Intl
United States
Destination: KHLN Helena Regl
United States
More flights between these airports :: More routes between these airports
Route:
File this flight plan on PilotEdge
Remarks:
Altitude:
(Current/Filed)
9,500ft
Speed:
(Current/Filed)
135kts
Departed: 16-Oct-18 04:56 PM
Arrived: 16-Oct-18 05:38 PM
Distance/Time
Traveled:
89nm/0:42
Distance/Time
To Go:
Arrived

Flight Plot

Page will automatically refresh every two minutes.

Flight plan parsing failed; only flown route is shown


Map Options




Map Legend


Flown Route
Filed Route
Departure Airport
Arrival Airport
Navaid (VOR, NDB)
Fix

Horizontal Profiles

Position Reports

Time Latitude Longitude Heading Altitude Ground
Speed
16-Oct-18 16:40 46.921880 -114.084802 130 3208ft 0kts
16-Oct-18 16:41 46.921880 -114.084802 130 3208ft 0kts
16-Oct-18 16:42 46.921880 -114.084801 130 3208ft 0kts
16-Oct-18 16:43 46.921879 -114.084801 130 3208ft 0kts
16-Oct-18 16:44 46.921879 -114.084800 130 3208ft 0kts
16-Oct-18 16:45 46.921878 -114.084799 130 3208ft 0kts
16-Oct-18 16:46 46.921877 -114.084797 130 3208ft 0kts
16-Oct-18 16:47 46.921877 -114.084796 130 3208ft 0kts
16-Oct-18 16:48 46.921876 -114.084795 130 3208ft 0kts
16-Oct-18 16:49 46.921875 -114.084794 130 3208ft 0kts
16-Oct-18 16:50 46.921875 -114.084793 130 3208ft 0kts
16-Oct-18 16:51 46.921816 -114.084760 188 3208ft 5kts
16-Oct-18 16:52 46.917927 -114.085200 144 3208ft 9kts
16-Oct-18 16:53 46.914861 -114.082272 220 3208ft 17kts
16-Oct-18 16:54 46.911598 -114.080198 131 3208ft 18kts
16-Oct-18 16:55 46.908829 -114.077173 181 3208ft 0kts
16-Oct-18 16:56 46.908828 -114.077173 181 3208ft 0kts
16-Oct-18 16:57 46.908308 -114.078200 307 3208ft 22kts
16-Oct-18 16:58 46.922581 -114.097624 341 3932ft 87kts
16-Oct-18 16:59 46.931515 -114.071215 94 5111ft 91kts
16-Oct-18 17:00 46.927260 -114.033364 104 6147ft 100kts
16-Oct-18 17:01 46.918822 -113.985880 104 6688ft 124kts
16-Oct-18 17:02 46.909415 -113.938366 118 7478ft 119kts
16-Oct-18 17:03 46.894060 -113.895572 127 8274ft 116kts
16-Oct-18 17:04 46.876416 -113.858668 119 9081ft 105kts
16-Oct-18 17:05 46.861433 -113.819364 113 9505ft 129kts
16-Oct-18 17:06 46.851391 -113.764484 93 9496ft 146kts
16-Oct-18 17:07 46.848768 -113.705076 93 9501ft 147kts
16-Oct-18 17:08 46.846121 -113.645091 93 9499ft 147kts
16-Oct-18 17:09 46.840357 -113.585706 99 9498ft 147kts
16-Oct-18 17:10 46.833331 -113.526483 102 9496ft 148kts
16-Oct-18 17:11 46.822815 -113.468083 104 9495ft 148kts
16-Oct-18 17:12 46.812215 -113.409411 104 9491ft 154kts
16-Oct-18 17:13 46.801057 -113.347670 104 9496ft 158kts
16-Oct-18 17:14 46.789890 -113.285731 104 9486ft 153kts
16-Oct-18 17:15 46.779312 -113.226497 99 9498ft 152kts
16-Oct-18 17:16 46.775575 -113.164354 94 9487ft 149kts
16-Oct-18 17:17 46.768786 -113.105725 104 9492ft 146kts
16-Oct-18 17:18 46.758395 -113.048386 104 9488ft 146kts
16-Oct-18 17:19 46.747929 -112.989745 104 9025ft 154kts
16-Oct-18 17:20 46.737612 -112.928978 104 8341ft 153kts
16-Oct-18 17:21 46.727765 -112.871059 104 7646ft 140kts
16-Oct-18 17:22 46.719988 -112.818093 87 7685ft 141kts
16-Oct-18 17:23 46.724024 -112.767729 115 7684ft 142kts
16-Oct-18 17:24 46.713296 -112.711775 104 7675ft 144kts
16-Oct-18 17:25 46.703354 -112.655210 105 7668ft 144kts
16-Oct-18 17:26 46.693449 -112.598842 105 7668ft 143kts
16-Oct-18 17:27 46.683500 -112.542360 105 7668ft 143kts
16-Oct-18 17:28 46.673483 -112.485971 105 7668ft 144kts
16-Oct-18 17:29 46.660546 -112.430763 101 7670ft 145kts
16-Oct-18 17:30 46.655002 -112.374449 105 7663ft 137kts
16-Oct-18 17:31 46.651366 -112.320114 97 7675ft 135kts
16-Oct-18 17:32 46.646514 -112.265873 96 7671ft 135kts
16-Oct-18 17:33 46.641249 -112.210672 102 7358ft 151kts
16-Oct-18 17:34 46.636515 -112.167194 98 6570ft 98kts
16-Oct-18 17:35 46.629874 -112.128848 105 5846ft 95kts
16-Oct-18 17:36 46.623857 -112.093924 103 5263ft 83kts
16-Oct-18 17:37 46.618920 -112.062369 96 4736ft 79kts
16-Oct-18 17:38 46.613920 -112.031861 99 4339ft 75kts
16-Oct-18 17:39 46.609192 -112.002344 99 3956ft 71kts
16-Oct-18 17:40 46.606157 -111.984784 158 3880ft 13kts
16-Oct-18 17:41 46.604738 -111.984352 134 3880ft 11kts
16-Oct-18 17:42 46.603251 -111.983047 213 3880ft 0kts
16-Oct-18 17:43 46.603251 -111.983047 213 3880ft 0kts
16-Oct-18 17:44 46.603251 -111.983047 213 3880ft 0kts

Navigation Log

Ident Type
Flight plan parsing failed, navigation log unavailable